createdAt,value
2023-02-14T00:01:16.979Z,11.17
2023-02-14T00:03:44.481Z,10.40
2023-02-14T00:06:14.012Z,14.50
2023-02-14T00:08:44.325Z,12.17
2023-02-14T00:11:12.390Z,11.07
2023-02-14T00:14:01.261Z,13.53
2023-02-14T00:16:27.855Z,10.10
2023-02-14T00:19:04.681Z,9.73
2023-02-14T00:21:32.938Z,17.50
2023-02-14T00:24:00.451Z,12.13
2023-02-14T00:26:27.977Z,12.50
2023-02-14T00:28:56.837Z,12.03
2023-02-14T00:31:24.773Z,12.73
2023-02-14T00:33:52.326Z,11.37
2023-02-14T00:36:20.954Z,11.80
2023-02-14T00:38:48.466Z,10.83
2023-02-14T00:41:19.207Z,13.57
2023-02-14T00:43:47.752Z,12.50
2023-02-14T00:46:17.412Z,13.57
2023-02-14T00:48:44.957Z,11.17
2023-02-14T00:51:12.547Z,13.10
2023-02-14T00:53:40.442Z,14.97
2023-02-14T00:56:08.716Z,12.70
2023-02-14T00:58:36.254Z,11.43
2023-02-14T01:01:03.901Z,15.73
2023-02-14T01:03:33.569Z,14.10
2023-02-14T01:06:01.178Z,14.63
2023-02-14T01:08:28.754Z,12.23
2023-02-14T01:10:56.232Z,15.43
2023-02-14T01:13:23.765Z,12.17
2023-02-14T01:15:53.007Z,10.50
2023-02-14T01:18:20.494Z,14.97
2023-02-14T01:20:49.435Z,12.50
2023-02-14T01:23:16.889Z,13.80
2023-02-14T01:25:44.370Z,15.47
2023-02-14T01:28:11.902Z,13.43
2023-02-14T01:30:39.483Z,16.97
2023-02-14T01:33:06.981Z,18.17
2023-02-14T01:35:38.515Z,14.97
2023-02-14T01:38:07.570Z,14.33
2023-02-14T01:40:35.416Z,12.33
2023-02-14T01:43:02.846Z,13.53
2023-02-14T01:45:31.903Z,12.73
2023-02-14T01:47:59.575Z,16.57
2023-02-14T01:50:29.725Z,15.43
2023-02-14T01:53:00.136Z,14.93
2023-02-14T01:55:31.533Z,15.20
2023-02-14T01:58:01.669Z,16.10
2023-02-14T02:00:52.063Z,12.20
2023-02-14T02:03:20.372Z,12.73
2023-02-14T02:05:49.925Z,14.23
2023-02-14T02:08:17.666Z,12.93
2023-02-14T02:10:46.488Z,14.83
2023-02-14T02:13:17.770Z,16.40
2023-02-14T02:15:51.561Z,13.03
2023-02-14T02:18:25.114Z,17.63
2023-02-14T02:21:12.161Z,18.30
2023-02-14T02:23:57.717Z,12.73
2023-02-14T02:26:58.756Z,15.47
2023-02-14T02:29:49.392Z,17.37
2023-02-14T02:32:40.655Z,15.97
2023-02-14T02:35:22.075Z,15.53
2023-02-14T02:37:59.839Z,14.63
2023-02-14T02:40:37.540Z,15.20
2023-02-14T02:43:16.763Z,12.87
2023-02-14T02:46:05.893Z,11.90
2023-02-14T02:48:38.348Z,12.30
2023-02-14T02:51:28.000Z,15.40
2023-02-14T02:54:00.188Z,20.10
2023-02-14T02:56:46.724Z,13.67
2023-02-14T02:59:19.095Z,12.37
2023-02-14T03:01:50.893Z,14.70
2023-02-14T03:04:37.337Z,14.93
2023-02-14T03:07:27.045Z,12.77
2023-02-14T03:09:57.737Z,14.40
2023-02-14T03:13:07.913Z,11.50
2023-02-14T03:15:42.638Z,13.93
2023-02-14T03:18:33.948Z,12.60
2023-02-14T03:21:07.822Z,17.20
2023-02-14T03:23:40.283Z,13.57
2023-02-14T03:26:15.041Z,12.83
2023-02-14T03:28:46.007Z,12.67
2023-02-14T03:31:21.330Z,16.67
2023-02-14T03:33:52.268Z,16.03
2023-02-14T03:36:22.878Z,14.37
2023-02-14T03:38:56.102Z,17.87
2023-02-14T03:41:27.291Z,18.40
2023-02-14T03:43:58.227Z,14.93
2023-02-14T03:46:29.231Z,13.93
2023-02-14T03:48:59.319Z,12.57
2023-02-14T03:51:27.523Z,18.07
2023-02-14T03:53:58.077Z,19.47
2023-02-14T03:56:31.107Z,19.10
2023-02-14T03:59:01.383Z,20.87
2023-02-14T04:01:32.016Z,18.27
2023-02-14T04:04:00.239Z,23.20
2023-02-14T04:06:27.750Z,23.60
2023-02-14T04:08:56.674Z,24.33
2023-02-14T04:11:24.704Z,29.50
2023-02-14T04:13:52.287Z,21.67
2023-02-14T04:16:19.792Z,25.53
2023-02-14T04:19:05.080Z,26.53
2023-02-14T04:21:32.627Z,24.23
2023-02-14T04:24:01.484Z,20.07
2023-02-14T04:26:28.993Z,27.97
2023-02-14T04:28:56.454Z,22.50
2023-02-14T04:31:24.051Z,23.17
2023-02-14T04:33:51.565Z,26.93
2023-02-14T04:36:19.056Z,22.90
2023-02-14T04:38:46.546Z,24.30
2023-02-14T04:41:15.337Z,21.30
2023-02-14T04:43:42.822Z,25.10
2023-02-14T04:46:10.296Z,24.67
2023-02-14T04:48:37.793Z,20.87
2023-02-14T04:51:06.706Z,25.57
2023-02-14T04:53:40.038Z,25.70
2023-02-14T04:56:07.953Z,20.57
2023-02-14T04:58:36.822Z,18.83
2023-02-14T05:01:04.383Z,20.60
2023-02-14T05:03:32.008Z,18.70
2023-02-14T05:05:59.447Z,18.97
2023-02-14T05:08:26.914Z,22.10
2023-02-14T05:10:55.615Z,20.43
2023-02-14T05:13:23.362Z,21.63
2023-02-14T05:15:52.247Z,18.50
2023-02-14T05:18:19.764Z,25.37
2023-02-14T05:20:50.233Z,27.07
2023-02-14T05:23:17.768Z,24.23
2023-02-14T05:25:45.382Z,29.57
2023-02-14T05:28:12.910Z,24.43
2023-02-14T05:30:40.879Z,26.67
2023-02-14T05:33:09.893Z,25.50
2023-02-14T05:35:37.586Z,26.53
2023-02-14T05:38:05.268Z,23.97
2023-02-14T05:40:32.902Z,26.37
2023-02-14T05:43:00.443Z,24.67
2023-02-14T05:45:27.991Z,28.30
2023-02-14T05:47:55.481Z,25.80
2023-02-14T05:50:24.400Z,24.90
2023-02-14T05:52:51.890Z,23.63
2023-02-14T05:55:19.433Z,21.33
2023-02-14T05:57:46.957Z,33.60
2023-02-14T06:00:15.758Z,27.57
2023-02-14T06:02:43.261Z,24.90
2023-02-14T06:05:10.763Z,25.53
2023-02-14T06:07:39.607Z,26.30
2023-02-14T06:10:09.793Z,27.73
2023-02-14T06:12:37.332Z,29.50
2023-02-14T06:15:05.477Z,24.73
2023-02-14T06:17:32.924Z,24.00
2023-02-14T06:20:45.360Z,31.77
2023-02-14T06:23:14.296Z,26.97
2023-02-14T06:25:41.799Z,29.83
2023-02-14T06:28:09.278Z,24.83
2023-02-14T06:30:36.868Z,31.43
2023-02-14T06:33:04.688Z,31.70
2023-02-14T06:35:32.219Z,29.60
2023-02-14T06:38:00.075Z,27.77
2023-02-14T06:40:28.943Z,30.90
2023-02-14T06:42:56.394Z,29.50
2023-02-14T06:45:24.120Z,25.60
2023-02-14T06:47:51.580Z,19.90
2023-02-14T06:50:19.275Z,27.77
2023-02-14T06:52:47.325Z,26.77
2023-02-14T06:55:14.845Z,26.57
2023-02-14T06:57:43.654Z,31.47
2023-02-14T07:00:11.909Z,29.23
2023-02-14T07:02:39.393Z,29.87
2023-02-14T07:05:07.283Z,30.17
2023-02-14T07:07:34.733Z,26.43
2023-02-14T07:10:02.198Z,28.27
2023-02-14T07:12:29.649Z,22.23
2023-02-14T07:14:58.519Z,25.37
2023-02-14T07:17:26.003Z,30.50
2023-02-14T07:19:53.503Z,29.30
2023-02-14T07:22:20.951Z,23.50
2023-02-14T07:24:48.457Z,29.50
2023-02-14T07:27:15.941Z,22.47
2023-02-14T07:29:43.440Z,28.07
2023-02-14T07:32:12.423Z,26.87
2023-02-14T07:34:40.014Z,31.30
2023-02-14T07:37:07.542Z,32.70
2023-02-14T07:39:35.152Z,23.40
2023-02-14T07:42:02.835Z,22.80
2023-02-14T07:44:30.337Z,28.50
2023-02-14T07:46:57.819Z,22.47
2023-02-14T07:49:26.623Z,26.67
2023-02-14T07:51:54.165Z,27.73
2023-02-14T07:54:21.676Z,23.30
2023-02-14T07:56:49.305Z,28.20
2023-02-14T07:59:16.900Z,24.73
2023-02-14T08:01:44.643Z,28.40
2023-02-14T08:04:16.350Z,21.70
2023-02-14T08:06:45.297Z,26.87
2023-02-14T08:09:24.423Z,25.77
2023-02-14T08:12:10.094Z,26.90
2023-02-14T08:14:37.718Z,26.73
2023-02-14T08:17:07.201Z,24.43
2023-02-14T08:19:34.781Z,34.57
2023-02-14T08:22:04.475Z,29.00
2023-02-14T08:24:32.011Z,27.40
2023-02-14T08:26:59.577Z,27.37
2023-02-14T08:29:27.157Z,29.67
2023-02-14T08:31:54.811Z,28.23
2023-02-14T08:34:22.364Z,23.70
2023-02-14T08:36:49.940Z,26.70
2023-02-14T08:39:18.879Z,27.93
2023-02-14T08:41:46.336Z,24.67
2023-02-14T08:44:14.092Z,24.67
2023-02-14T08:46:41.749Z,26.13
2023-02-14T08:49:10.796Z,25.30
2023-02-14T08:51:38.283Z,22.70
2023-02-14T08:54:05.921Z,25.67
2023-02-14T08:56:35.311Z,32.10
2023-02-14T08:59:03.962Z,23.70
2023-02-14T09:01:31.515Z,28.67
2023-02-14T09:03:59.092Z,23.30
2023-02-14T09:06:26.625Z,25.83
2023-02-14T09:08:55.085Z,25.30
2023-02-14T09:11:24.360Z,21.07
2023-02-14T09:13:54.079Z,19.90
2023-02-14T09:16:22.482Z,19.03
2023-02-14T09:18:50.553Z,18.00
2023-02-14T09:21:20.249Z,20.20
2023-02-14T09:23:47.699Z,20.33
2023-02-14T09:26:16.212Z,18.97
2023-02-14T09:28:43.923Z,19.03
2023-02-14T09:31:15.333Z,17.63
2023-02-14T09:34:00.954Z,20.80
2023-02-14T09:36:28.621Z,18.33
2023-02-14T09:38:56.124Z,18.77
2023-02-14T09:41:54.677Z,22.20
2023-02-14T09:44:27.615Z,16.27
2023-02-14T09:46:58.582Z,16.00
2023-02-14T09:49:31.197Z,23.00
2023-02-14T09:51:59.487Z,18.60
2023-02-14T09:54:29.395Z,19.50
2023-02-14T09:57:00.164Z,19.13
2023-02-14T09:59:34.288Z,18.97
2023-02-14T10:02:16.325Z,19.33
2023-02-14T10:04:46.487Z,19.07
2023-02-14T10:07:20.887Z,21.07
2023-02-14T10:09:55.368Z,16.33
2023-02-14T10:12:25.376Z,18.00
2023-02-14T10:14:54.504Z,17.97
2023-02-14T10:17:29.100Z,19.67
2023-02-14T10:20:01.055Z,18.70
2023-02-14T10:22:41.203Z,19.90
2023-02-14T10:25:15.510Z,17.67
2023-02-14T10:27:46.202Z,19.40
2023-02-14T10:30:17.749Z,20.40
2023-02-14T10:32:49.974Z,20.30
2023-02-14T10:35:24.694Z,21.13
2023-02-14T10:38:01.405Z,22.07
2023-02-14T10:41:06.524Z,19.37
2023-02-14T10:43:40.239Z,19.07
2023-02-14T10:46:13.516Z,24.00
2023-02-14T10:48:50.068Z,28.07
2023-02-14T10:51:21.247Z,21.70
2023-02-14T10:53:56.747Z,22.10
2023-02-14T10:56:27.877Z,21.70
2023-02-14T10:58:57.791Z,18.70
2023-02-14T11:01:26.103Z,21.37
2023-02-14T11:03:58.476Z,26.07
2023-02-14T11:06:26.024Z,20.20
2023-02-14T11:08:55.586Z,23.17
2023-02-14T11:11:28.332Z,22.70
2023-02-14T11:13:55.871Z,20.63
2023-02-14T11:16:30.817Z,25.30
2023-02-14T11:19:11.327Z,21.93
2023-02-14T11:21:39.839Z,25.03
2023-02-14T11:24:18.594Z,23.00
2023-02-14T11:26:48.241Z,22.27
2023-02-14T11:29:27.893Z,23.57
2023-02-14T11:31:55.687Z,21.60
2023-02-14T11:34:33.522Z,21.57
2023-02-14T11:37:01.267Z,20.70
2023-02-14T11:39:31.440Z,18.40
2023-02-14T11:42:00.764Z,26.30
2023-02-14T11:44:33.051Z,19.60
2023-02-14T11:47:19.784Z,20.57
2023-02-14T11:49:58.101Z,21.23
2023-02-14T11:52:29.570Z,17.50
2023-02-14T11:54:58.071Z,21.63
2023-02-14T11:57:28.685Z,17.60
2023-02-14T11:59:57.082Z,25.00
2023-02-14T12:02:40.125Z,17.90
2023-02-14T12:05:20.855Z,15.87
2023-02-14T12:07:49.636Z,20.83
2023-02-14T12:10:21.362Z,24.10
2023-02-14T12:12:53.849Z,19.33
2023-02-14T12:15:37.668Z,19.23
2023-02-14T12:18:30.131Z,18.57
2023-02-14T12:21:02.318Z,20.17
2023-02-14T12:23:36.815Z,18.50
2023-02-14T12:26:07.387Z,23.03
2023-02-14T12:28:41.302Z,18.80
2023-02-14T12:31:11.292Z,23.53
2023-02-14T12:33:39.683Z,22.37
2023-02-14T12:36:14.157Z,27.43
2023-02-14T12:38:49.574Z,22.50
2023-02-14T12:41:26.008Z,26.87
2023-02-14T12:43:54.553Z,25.17
2023-02-14T12:46:34.451Z,22.40
2023-02-14T12:49:14.862Z,27.90
2023-02-14T12:51:50.338Z,24.03
2023-02-14T12:54:29.258Z,25.47
2023-02-14T12:57:01.417Z,24.30
2023-02-14T12:59:32.877Z,26.90
2023-02-14T13:02:31.077Z,26.70
2023-02-14T13:05:01.551Z,24.00
2023-02-14T13:08:05.005Z,25.77
2023-02-14T13:10:46.427Z,23.50
2023-02-14T13:13:21.404Z,27.80
2023-02-14T13:15:54.915Z,29.53
2023-02-14T13:18:33.547Z,25.67
2023-02-14T13:21:02.847Z,26.43
2023-02-14T13:23:35.951Z,25.63
2023-02-14T13:26:07.815Z,26.93
2023-02-14T13:28:37.480Z,29.20
2023-02-14T13:31:06.025Z,29.70
2023-02-14T13:33:36.290Z,27.30
2023-02-14T13:36:07.692Z,26.03
2023-02-14T13:38:40.563Z,30.23
2023-02-14T13:41:08.464Z,25.37
2023-02-14T13:43:46.882Z,24.30
2023-02-14T13:46:14.916Z,22.50
2023-02-14T13:48:43.449Z,24.07
2023-02-14T13:51:11.349Z,24.70
2023-02-14T13:53:42.062Z,27.93
2023-02-14T13:56:32.458Z,25.00
2023-02-14T13:59:04.351Z,23.23
2023-02-14T14:01:35.678Z,25.67
2023-02-14T14:04:06.271Z,25.50
2023-02-14T14:07:08.046Z,26.10
2023-02-14T14:10:01.442Z,26.30
2023-02-14T14:12:45.119Z,25.17
2023-02-14T14:15:21.963Z,28.30
2023-02-14T14:18:34.174Z,30.40
2023-02-14T14:21:01.658Z,24.73
2023-02-14T14:23:31.964Z,22.87
2023-02-14T14:26:01.456Z,28.40
2023-02-14T14:28:31.622Z,29.67
2023-02-14T14:30:59.393Z,29.37
2023-02-14T14:33:30.001Z,27.90
2023-02-14T14:35:59.660Z,29.87
2023-02-14T14:38:27.646Z,28.63
2023-02-14T14:40:55.613Z,31.10
2023-02-14T14:43:27.852Z,27.17
2023-02-14T14:45:56.146Z,27.47
2023-02-14T14:48:28.940Z,28.67
2023-02-14T14:50:57.058Z,27.77
2023-02-14T14:53:28.025Z,22.03
2023-02-14T14:55:55.990Z,29.87
2023-02-14T14:58:39.613Z,25.43
2023-02-14T15:01:08.669Z,29.53
2023-02-14T15:03:36.172Z,28.50
2023-02-14T15:06:07.554Z,29.23
2023-02-14T15:08:35.912Z,34.40
2023-02-14T15:11:07.457Z,28.20
2023-02-14T15:13:50.986Z,29.47
2023-02-14T15:16:20.353Z,30.00
2023-02-14T15:18:48.116Z,27.63
2023-02-14T15:21:16.504Z,29.43
2023-02-14T15:23:44.979Z,26.73
2023-02-14T15:26:18.741Z,30.80
2023-02-14T15:28:55.588Z,25.50
2023-02-14T15:31:23.715Z,26.47
2023-02-14T15:33:51.561Z,28.90
2023-02-14T15:36:21.374Z,28.00
2023-02-14T15:38:49.039Z,29.80
2023-02-14T15:41:17.765Z,28.87
2023-02-14T15:43:53.565Z,28.07
2023-02-14T15:46:29.845Z,27.60
2023-02-14T15:49:01.012Z,26.17
2023-02-14T15:51:30.789Z,29.00
2023-02-14T15:54:00.325Z,26.00
2023-02-14T15:56:29.566Z,28.23
2023-02-14T15:59:01.947Z,28.50
2023-02-14T16:01:30.716Z,30.27
2023-02-14T16:04:00.146Z,26.33
2023-02-14T16:06:38.632Z,28.77
2023-02-14T16:09:08.337Z,26.23
2023-02-14T16:11:37.172Z,30.80
2023-02-14T16:14:32.496Z,24.90
2023-02-14T16:17:02.359Z,29.80
2023-02-14T16:19:34.590Z,28.03
2023-02-14T16:22:02.481Z,33.80
2023-02-14T16:24:29.981Z,29.60
2023-02-14T16:26:58.129Z,36.40
2023-02-14T16:29:25.595Z,33.50
2023-02-14T16:32:14.478Z,32.10
2023-02-14T16:34:43.491Z,34.70
2023-02-14T16:37:21.233Z,34.70
2023-02-14T16:39:49.149Z,32.60
2023-02-14T16:42:17.767Z,34.93
2023-02-14T16:44:45.636Z,35.57
2023-02-14T16:47:15.787Z,28.60
2023-02-14T16:49:43.364Z,31.60
2023-02-14T16:52:13.374Z,27.10
2023-02-14T16:54:41.002Z,29.90
2023-02-14T16:57:13.689Z,37.30
2023-02-14T16:59:41.146Z,34.07
2023-02-14T17:02:08.754Z,39.77
2023-02-14T17:04:37.630Z,36.40
2023-02-14T17:07:06.604Z,35.90
2023-02-14T17:09:36.973Z,32.83
2023-02-14T17:12:08.322Z,37.10
2023-02-14T17:14:37.877Z,35.07
2023-02-14T17:17:05.378Z,33.60
2023-02-14T17:19:33.146Z,29.93
2023-02-14T17:22:01.955Z,39.90
2023-02-14T17:24:29.662Z,33.73
2023-02-14T17:26:57.149Z,33.80
2023-02-14T17:29:24.651Z,38.43
2023-02-14T17:31:52.168Z,31.27
2023-02-14T17:34:21.820Z,30.87
2023-02-14T17:36:49.326Z,30.40
2023-02-14T17:39:19.819Z,30.27
2023-02-14T17:41:47.430Z,35.00
2023-02-14T17:44:14.935Z,37.67
2023-02-14T17:46:42.563Z,40.37
2023-02-14T17:49:10.360Z,33.83
2023-02-14T17:51:37.926Z,37.47
2023-02-14T17:54:05.491Z,33.40
2023-02-14T17:56:34.402Z,31.77
2023-02-14T17:59:01.884Z,36.67
2023-02-14T18:01:34.224Z,31.47
2023-02-14T18:04:01.864Z,42.33
2023-02-14T18:06:29.423Z,38.37
2023-02-14T18:08:57.638Z,38.70
2023-02-14T18:11:26.764Z,36.70
2023-02-14T18:13:56.128Z,43.97
2023-02-14T18:16:24.661Z,38.07
2023-02-14T18:18:54.956Z,42.17
2023-02-14T18:21:25.855Z,39.97
2023-02-14T18:23:53.633Z,36.70
2023-02-14T18:26:23.566Z,34.47
2023-02-14T18:28:51.951Z,36.67
2023-02-14T18:31:21.684Z,34.50
2023-02-14T18:33:51.194Z,41.63
2023-02-14T18:36:20.624Z,41.53
2023-02-14T18:38:49.792Z,43.40
2023-02-14T18:41:19.450Z,37.30
2023-02-14T18:43:50.971Z,35.57
2023-02-14T18:46:22.204Z,40.40
2023-02-14T18:48:51.699Z,34.17
2023-02-14T18:51:24.490Z,42.33
2023-02-14T18:53:52.815Z,42.10
2023-02-14T18:56:22.442Z,38.00
2023-02-14T18:58:52.869Z,38.90
2023-02-14T19:01:22.285Z,41.63
2023-02-14T19:03:52.848Z,40.40
2023-02-14T19:06:21.245Z,52.17
2023-02-14T19:08:49.066Z,45.63
2023-02-14T19:11:18.284Z,45.37
2023-02-14T19:13:46.284Z,47.43
2023-02-14T19:16:17.643Z,43.97
2023-02-14T19:18:45.733Z,51.20
2023-02-14T19:21:15.568Z,39.67
2023-02-14T19:23:47.006Z,37.67
2023-02-14T19:26:19.052Z,38.00
2023-02-14T19:28:48.236Z,40.57
2023-02-14T19:31:17.844Z,32.40
2023-02-14T19:33:48.019Z,34.50
2023-02-14T19:36:20.536Z,33.40
2023-02-14T19:38:50.299Z,34.00
2023-02-14T19:41:19.756Z,34.83
2023-02-14T19:43:48.881Z,29.00
2023-02-14T19:46:17.887Z,34.73
2023-02-14T19:48:45.904Z,31.87
2023-02-14T19:51:19.966Z,36.13
2023-02-14T19:53:48.795Z,36.87
2023-02-14T19:56:23.629Z,32.87
2023-02-14T19:58:52.119Z,33.67
2023-02-14T20:01:27.962Z,32.50
2023-02-14T20:03:56.063Z,37.20
2023-02-14T20:06:26.154Z,35.67
2023-02-14T20:08:54.210Z,33.87
2023-02-14T20:11:30.437Z,32.97
2023-02-14T20:13:58.712Z,36.13
2023-02-14T20:16:27.468Z,34.60
2023-02-14T20:18:55.567Z,31.90
2023-02-14T20:21:28.297Z,40.27
2023-02-14T20:23:58.596Z,33.10
2023-02-14T20:26:26.401Z,38.37
2023-02-14T20:28:54.831Z,36.53
2023-02-14T20:31:22.782Z,32.47
2023-02-14T20:33:51.484Z,37.10
2023-02-14T20:36:19.519Z,41.97
2023-02-14T20:38:55.411Z,37.33
2023-02-14T20:41:23.558Z,36.90
2023-02-14T20:43:53.226Z,39.53
2023-02-14T20:46:21.409Z,39.07
2023-02-14T20:48:51.043Z,38.53
2023-02-14T20:51:20.795Z,33.47
2023-02-14T20:53:53.231Z,45.50
2023-02-14T20:56:24.648Z,38.43
2023-02-14T20:58:52.574Z,35.90
2023-02-14T21:01:21.636Z,40.23
2023-02-14T21:03:52.456Z,39.43
2023-02-14T21:06:21.619Z,42.37
2023-02-14T21:08:51.167Z,33.87
2023-02-14T21:11:20.598Z,41.50
2023-02-14T21:13:51.524Z,38.67
2023-02-14T21:16:20.881Z,36.70
2023-02-14T21:18:52.441Z,34.57
2023-02-14T21:21:24.231Z,36.97
2023-02-14T21:23:56.356Z,40.20
2023-02-14T21:26:24.624Z,32.97
2023-02-14T21:28:52.478Z,40.90
2023-02-14T21:31:21.962Z,45.20
2023-02-14T21:33:50.996Z,40.47
2023-02-14T21:36:19.791Z,37.13
2023-02-14T21:38:49.812Z,44.20
2023-02-14T21:41:20.461Z,43.20
2023-02-14T21:43:49.589Z,39.43
2023-02-14T21:46:18.526Z,42.77
2023-02-14T21:49:03.922Z,42.73
2023-02-14T21:51:34.046Z,37.23
2023-02-14T21:54:01.693Z,41.87
2023-02-14T21:56:30.782Z,40.60
2023-02-14T21:58:58.621Z,46.57
2023-02-14T22:01:27.940Z,45.73
2023-02-14T22:03:56.546Z,47.43
2023-02-14T22:06:24.416Z,37.67
2023-02-14T22:08:54.489Z,39.70
2023-02-14T22:11:22.818Z,43.03
2023-02-14T22:13:51.961Z,40.00
2023-02-14T22:16:23.708Z,40.03
2023-02-14T22:18:53.415Z,42.27
2023-02-14T22:21:23.451Z,43.30
2023-02-14T22:23:52.102Z,46.93
2023-02-14T22:26:22.828Z,39.50
2023-02-14T22:28:53.796Z,37.70
2023-02-14T22:31:22.117Z,37.27
2023-02-14T22:33:51.395Z,48.67
2023-02-14T22:36:19.069Z,38.53
2023-02-14T22:38:48.243Z,45.80
2023-02-14T22:41:18.134Z,38.90
2023-02-14T22:43:46.303Z,42.00
2023-02-14T22:46:17.988Z,43.13
2023-02-14T22:48:45.694Z,47.30
2023-02-14T22:51:19.650Z,43.13
2023-02-14T22:53:49.134Z,44.97
2023-02-14T22:56:21.611Z,46.63
2023-02-14T22:58:58.681Z,47.87
2023-02-14T23:01:28.602Z,50.53
2023-02-14T23:03:57.815Z,50.93
2023-02-14T23:06:27.528Z,48.27
2023-02-14T23:08:57.177Z,48.23
2023-02-14T23:11:35.188Z,46.43
2023-02-14T23:14:23.580Z,42.67
2023-02-14T23:17:10.170Z,45.47
2023-02-14T23:19:55.928Z,46.03
2023-02-14T23:22:25.167Z,43.73
2023-02-14T23:24:57.085Z,40.03
2023-02-14T23:27:27.302Z,38.57
2023-02-14T23:29:54.833Z,39.30
2023-02-14T23:32:23.751Z,44.07
2023-02-14T23:34:52.260Z,52.57
2023-02-14T23:37:19.885Z,43.63
2023-02-14T23:39:49.767Z,40.07
2023-02-14T23:42:17.307Z,40.73
2023-02-14T23:44:45.405Z,51.43
2023-02-14T23:47:13.972Z,46.77
2023-02-14T23:49:43.550Z,41.60
2023-02-14T23:52:12.939Z,38.40
2023-02-14T23:54:40.650Z,43.40
2023-02-14T23:57:08.878Z,38.57
2023-02-14T23:59:36.772Z,40.63
